createdAt,value
2019-05-25T00:02:23.963Z,9.65
2019-05-25T00:04:52.667Z,13.48
2019-05-25T00:07:21.131Z,11.20
2019-05-25T00:09:49.574Z,6.15
2019-05-25T00:12:18.300Z,10.60
2019-05-25T00:14:46.730Z,12.18
2019-05-25T00:17:15.445Z,15.83
2019-05-25T00:19:44.155Z,10.65
2019-05-25T00:22:12.867Z,11.15
2019-05-25T00:24:41.686Z,9.93
2019-05-25T00:27:10.166Z,17.82
2019-05-25T00:29:38.603Z,16.60
2019-05-25T00:32:07.426Z,14.87
2019-05-25T00:34:35.862Z,10.48
2019-05-25T00:37:04.383Z,14.95
2019-05-25T00:39:32.822Z,12.20
2019-05-25T00:42:01.548Z,9.33
2019-05-25T00:44:30.351Z,14.95
2019-05-25T00:46:59.148Z,12.00
2019-05-25T00:49:27.653Z,10.28
2019-05-25T00:51:56.364Z,10.20
2019-05-25T00:54:28.124Z,9.58
2019-05-25T00:56:54.967Z,14.65
2019-05-25T00:59:23.418Z,11.88
2019-05-25T01:01:52.111Z,16.32
2019-05-25T01:04:20.816Z,15.20
2019-05-25T01:06:49.254Z,13.00
2019-05-25T01:09:17.718Z,16.65
2019-05-25T01:11:46.154Z,9.70
2019-05-25T01:14:14.591Z,9.90
2019-05-25T01:16:43.077Z,13.80
2019-05-25T01:19:11.769Z,16.93
2019-05-25T01:21:40.232Z,8.70
2019-05-25T01:24:09.196Z,11.55
2019-05-25T01:26:37.908Z,10.08
2019-05-25T01:29:06.377Z,14.95
2019-05-25T01:31:34.810Z,6.65
2019-05-25T01:34:03.278Z,6.95
2019-05-25T01:36:31.740Z,10.65
2019-05-25T01:39:00.179Z,10.35
2019-05-25T01:41:28.626Z,10.13
2019-05-25T01:43:57.355Z,12.50
2019-05-25T01:46:25.802Z,10.48
2019-05-25T01:48:54.326Z,13.20
2019-05-25T01:51:22.816Z,12.85
2019-05-25T01:53:51.611Z,15.35
2019-05-25T01:56:20.087Z,10.20
2019-05-25T01:58:48.537Z,19.30
2019-05-25T02:01:17.269Z,17.02
2019-05-25T02:03:45.774Z,14.35
2019-05-25T02:06:14.527Z,20.82
2019-05-25T02:08:43.243Z,18.35
2019-05-25T02:11:11.708Z,17.80
2019-05-25T02:13:40.413Z,19.52
2019-05-25T02:16:08.922Z,19.27
2019-05-25T02:18:37.379Z,16.80
2019-05-25T02:21:06.235Z,25.88
2019-05-25T02:23:34.674Z,23.92
2019-05-25T02:26:03.399Z,19.92
2019-05-25T02:28:32.119Z,23.42
2019-05-25T02:31:00.574Z,25.50
2019-05-25T02:33:29.354Z,27.75
2019-05-25T02:35:58.258Z,27.25
2019-05-25T02:38:26.719Z,20.70
2019-05-25T02:40:55.411Z,29.77
2019-05-25T02:43:23.871Z,34.45
2019-05-25T02:45:52.414Z,28.30
2019-05-25T02:48:20.919Z,27.52
2019-05-25T02:50:52.922Z,29.77
2019-05-25T02:53:19.772Z,22.40
2019-05-25T02:55:48.229Z,23.67
2019-05-25T02:58:16.947Z,27.48
2019-05-25T03:00:45.386Z,22.52
2019-05-25T03:03:13.924Z,22.05
2019-05-25T03:05:42.894Z,24.95
2019-05-25T03:08:11.454Z,23.38
2019-05-25T03:10:40.549Z,23.67
2019-05-25T03:13:08.994Z,20.08
2019-05-25T03:15:37.866Z,19.70
2019-05-25T03:18:06.628Z,21.95
2019-05-25T03:20:35.418Z,22.55
2019-05-25T03:23:03.875Z,19.92
2019-05-25T03:25:32.324Z,20.97
2019-05-25T03:28:00.837Z,16.80
2019-05-25T03:30:32.638Z,23.22
2019-05-25T03:33:01.142Z,20.05
2019-05-25T03:35:29.790Z,22.02
2019-05-25T03:37:58.312Z,18.52
2019-05-25T03:40:26.764Z,19.23
2019-05-25T03:42:55.282Z,16.20
2019-05-25T03:45:23.726Z,15.85
2019-05-25T03:47:52.272Z,15.10
2019-05-25T03:50:20.715Z,16.77
2019-05-25T03:52:49.158Z,20.37
2019-05-25T03:55:17.592Z,13.38
2019-05-25T03:57:46.285Z,18.07
2019-05-25T04:00:15.577Z,18.35
2019-05-25T04:02:44.526Z,18.30
2019-05-25T04:05:13.399Z,15.50
2019-05-25T04:07:42.092Z,16.90
2019-05-25T04:10:10.616Z,17.02
2019-05-25T04:12:39.349Z,17.57
2019-05-25T04:15:08.210Z,14.60
2019-05-25T04:17:36.657Z,18.40
2019-05-25T04:20:06.907Z,18.55
2019-05-25T04:22:35.329Z,16.65
2019-05-25T04:25:04.817Z,17.40
2019-05-25T04:27:33.277Z,18.90
2019-05-25T04:30:02.030Z,17.17
2019-05-25T04:32:30.798Z,17.65
2019-05-25T04:34:59.482Z,23.00
2019-05-25T04:37:27.934Z,16.50
2019-05-25T04:39:56.647Z,18.52
2019-05-25T04:42:25.352Z,16.23
2019-05-25T04:44:54.038Z,22.40
2019-05-25T04:47:26.875Z,18.42
2019-05-25T04:49:52.899Z,22.95
2019-05-25T04:52:21.324Z,15.50
2019-05-25T04:54:49.780Z,21.73
2019-05-25T04:57:18.210Z,20.57
2019-05-25T04:59:46.645Z,17.82
2019-05-25T05:02:15.165Z,20.75
2019-05-25T05:04:43.915Z,15.95
2019-05-25T05:07:12.700Z,12.93
2019-05-25T05:09:41.142Z,17.45
2019-05-25T05:12:09.585Z,16.20
2019-05-25T05:14:38.307Z,17.07
2019-05-25T05:17:06.994Z,18.98
2019-05-25T05:19:35.719Z,14.35
2019-05-25T05:22:05.899Z,10.08
2019-05-25T05:24:34.451Z,15.18
2019-05-25T05:27:02.881Z,14.18
2019-05-25T05:29:31.337Z,21.17
2019-05-25T05:31:59.794Z,15.20
2019-05-25T05:34:28.489Z,22.30
2019-05-25T05:36:57.396Z,22.17
2019-05-25T05:39:27.488Z,14.95
2019-05-25T05:41:56.148Z,18.48
2019-05-25T05:44:26.616Z,19.40
2019-05-25T05:46:57.540Z,17.87
2019-05-25T05:49:27.667Z,14.80
2019-05-25T05:51:57.991Z,18.98
2019-05-25T05:54:27.164Z,18.80
2019-05-25T05:57:10.639Z,16.02
2019-05-25T05:59:25.762Z,15.45
2019-05-25T06:01:54.200Z,20.52
2019-05-25T06:04:22.929Z,18.67
2019-05-25T06:06:51.369Z,12.30
2019-05-25T06:09:19.801Z,12.93
2019-05-25T06:11:51.222Z,16.07
2019-05-25T06:14:21.033Z,18.87
2019-05-25T06:16:49.716Z,18.15
2019-05-25T06:19:18.239Z,17.23
2019-05-25T06:21:47.026Z,18.45
2019-05-25T06:24:15.600Z,19.07
2019-05-25T06:26:44.384Z,18.37
2019-05-25T06:29:13.171Z,13.65
2019-05-25T06:31:41.606Z,14.50
2019-05-25T06:34:10.545Z,18.62
2019-05-25T06:36:38.982Z,13.50
2019-05-25T06:39:08.910Z,18.27
2019-05-25T06:41:37.382Z,11.97
2019-05-25T06:44:06.219Z,14.68
2019-05-25T06:46:34.723Z,15.95
2019-05-25T06:49:03.328Z,16.48
2019-05-25T06:51:31.869Z,15.43
2019-05-25T06:54:00.368Z,12.63
2019-05-25T06:56:28.815Z,11.97
2019-05-25T06:58:57.516Z,12.43
2019-05-25T07:01:26.350Z,9.38
2019-05-25T07:03:55.061Z,13.75
2019-05-25T07:06:23.677Z,10.50
2019-05-25T07:08:52.148Z,19.75
2019-05-25T07:11:20.927Z,10.00
2019-05-25T07:13:49.437Z,11.45
2019-05-25T07:16:17.875Z,12.68
2019-05-25T07:18:46.327Z,13.98
2019-05-25T07:21:14.985Z,19.30
2019-05-25T07:23:44.957Z,11.53
2019-05-25T07:26:13.546Z,12.53
2019-05-25T07:28:43.889Z,11.60
2019-05-25T07:31:12.694Z,9.88
2019-05-25T07:33:41.311Z,7.90
2019-05-25T07:36:09.754Z,9.85
2019-05-25T07:38:38.181Z,6.37
2019-05-25T07:41:06.884Z,7.42
2019-05-25T07:43:35.814Z,9.60
2019-05-25T07:46:04.571Z,8.35
2019-05-25T07:48:33.293Z,7.45
2019-05-25T07:51:01.734Z,6.25
2019-05-25T07:53:30.165Z,4.47
2019-05-25T07:55:58.593Z,8.18
2019-05-25T07:58:27.611Z,5.92
2019-05-25T08:00:56.033Z,4.62
2019-05-25T08:03:24.778Z,3.05
2019-05-25T08:05:53.578Z,4.60
2019-05-25T08:08:22.047Z,6.00
2019-05-25T08:10:50.477Z,5.97
2019-05-25T08:13:18.918Z,3.47
2019-05-25T08:15:47.696Z,4.67
2019-05-25T08:18:16.403Z,2.58
2019-05-25T08:20:47.175Z,4.67
2019-05-25T08:23:15.433Z,3.42
2019-05-25T08:25:43.905Z,5.12
2019-05-25T08:28:12.581Z,2.05
2019-05-25T08:30:41.744Z,5.03
2019-05-25T08:33:10.391Z,2.77
2019-05-25T08:35:39.259Z,1.82
2019-05-25T08:38:07.753Z,4.45
2019-05-25T08:40:36.606Z,2.05
2019-05-25T08:43:05.035Z,3.60
2019-05-25T08:45:33.674Z,3.60
2019-05-25T08:48:02.567Z,2.40
2019-05-25T08:50:38.351Z,4.50
2019-05-25T08:53:01.669Z,1.82
2019-05-25T08:55:30.098Z,1.42
2019-05-25T08:58:01.457Z,1.87
2019-05-25T09:00:30.028Z,2.55
2019-05-25T09:02:58.787Z,2.70
2019-05-25T09:05:27.534Z,1.70
2019-05-25T09:07:56.036Z,1.98
2019-05-25T09:10:24.492Z,3.92
2019-05-25T09:12:52.953Z,3.92
2019-05-25T09:15:21.898Z,2.33
2019-05-25T09:17:50.356Z,2.30
2019-05-25T09:20:18.797Z,5.55
2019-05-25T09:22:47.263Z,3.35
2019-05-25T09:25:15.937Z,5.05
2019-05-25T09:27:44.395Z,11.38
2019-05-25T09:30:13.385Z,5.25
2019-05-25T09:32:42.593Z,6.33
2019-05-25T09:35:11.547Z,4.97
2019-05-25T09:37:39.981Z,5.65
2019-05-25T09:40:09.050Z,6.58
2019-05-25T09:42:37.599Z,3.08
2019-05-25T09:45:07.873Z,4.87
2019-05-25T09:47:36.575Z,10.00
2019-05-25T09:50:05.930Z,9.93
2019-05-25T09:52:34.370Z,6.40
2019-05-25T09:55:04.129Z,3.72
2019-05-25T09:57:32.939Z,9.50
2019-05-25T10:00:01.399Z,10.40
2019-05-25T10:02:29.906Z,7.25
2019-05-25T10:04:58.366Z,9.53
2019-05-25T10:07:26.802Z,6.65
2019-05-25T10:09:55.244Z,12.33
2019-05-25T10:12:23.680Z,8.03
2019-05-25T10:14:52.132Z,7.60
2019-05-25T10:17:20.892Z,11.28
2019-05-25T10:19:49.320Z,7.75
2019-05-25T10:22:18.358Z,10.88
2019-05-25T10:24:46.797Z,10.88
2019-05-25T10:27:15.497Z,22.85
2019-05-25T10:29:44.221Z,8.20
2019-05-25T10:32:12.713Z,8.13
2019-05-25T10:34:41.159Z,9.00
2019-05-25T10:37:09.592Z,9.08
2019-05-25T10:39:38.352Z,5.33
2019-05-25T10:42:06.795Z,8.40
2019-05-25T10:44:35.229Z,7.08
2019-05-25T10:47:03.749Z,11.12
2019-05-25T10:49:32.681Z,6.53
2019-05-25T10:52:01.124Z,5.37
2019-05-25T10:54:29.565Z,6.28
2019-05-25T10:56:58.261Z,7.30
2019-05-25T10:59:26.685Z,4.65
2019-05-25T11:01:55.450Z,11.08
2019-05-25T11:04:23.933Z,11.50
2019-05-25T11:06:52.773Z,4.60
2019-05-25T11:09:21.188Z,8.75
2019-05-25T11:11:49.926Z,5.95
2019-05-25T11:14:18.617Z,6.65
2019-05-25T11:16:47.108Z,5.80
2019-05-25T11:19:15.874Z,6.40
2019-05-25T11:21:44.309Z,5.12
2019-05-25T11:24:12.737Z,5.33
2019-05-25T11:26:41.177Z,3.05
2019-05-25T11:29:09.618Z,5.45
2019-05-25T11:31:38.146Z,4.53
2019-05-25T11:34:06.836Z,4.42
2019-05-25T11:36:35.268Z,4.80
2019-05-25T11:39:05.412Z,4.62
2019-05-25T11:41:34.589Z,5.58
2019-05-25T11:44:03.017Z,7.55
2019-05-25T11:46:31.472Z,5.80
2019-05-25T11:49:01.906Z,5.72
2019-05-25T11:51:30.363Z,6.70
2019-05-25T11:53:58.814Z,11.73
2019-05-25T11:56:27.253Z,6.17
2019-05-25T11:58:55.709Z,5.45
2019-05-25T12:01:24.151Z,4.70
2019-05-25T12:03:52.569Z,6.05
2019-05-25T12:06:21.020Z,3.45
2019-05-25T12:08:49.452Z,2.20
2019-05-25T12:11:18.205Z,3.87
2019-05-25T12:13:46.638Z,5.47
2019-05-25T12:16:15.361Z,4.87
2019-05-25T12:18:44.158Z,7.83
2019-05-25T12:21:12.585Z,4.65
2019-05-25T12:23:41.109Z,4.33
2019-05-25T12:26:09.550Z,7.40
2019-05-25T12:28:37.996Z,6.10
2019-05-25T12:31:06.900Z,5.40
2019-05-25T12:33:35.368Z,9.10
2019-05-25T12:36:04.149Z,6.58
2019-05-25T12:38:32.598Z,6.08
2019-05-25T12:41:01.408Z,5.87
2019-05-25T12:43:30.194Z,6.53
2019-05-25T12:45:58.614Z,5.78
2019-05-25T12:48:27.060Z,5.15
2019-05-25T12:50:55.861Z,6.30
2019-05-25T12:53:24.631Z,5.28
2019-05-25T12:55:53.052Z,8.48
2019-05-25T12:58:23.761Z,11.15
2019-05-25T13:00:56.018Z,7.30
2019-05-25T13:03:22.048Z,4.80
2019-05-25T13:05:50.508Z,9.00
2019-05-25T13:08:18.945Z,10.65
2019-05-25T13:10:47.376Z,8.40
2019-05-25T13:13:16.385Z,8.18
2019-05-25T13:15:44.889Z,6.80
2019-05-25T13:18:13.313Z,4.55
2019-05-25T13:20:42.117Z,14.73
2019-05-25T13:23:10.910Z,9.83
2019-05-25T13:25:39.336Z,11.25
2019-05-25T13:28:07.794Z,5.20
2019-05-25T13:30:36.570Z,6.17
2019-05-25T13:33:05.006Z,5.50
2019-05-25T13:35:33.517Z,6.37
2019-05-25T13:38:02.227Z,5.50
2019-05-25T13:40:30.737Z,5.47
2019-05-25T13:42:59.479Z,5.25
2019-05-25T13:45:27.903Z,4.92
2019-05-25T13:47:56.345Z,4.87
2019-05-25T13:50:25.098Z,3.58
2019-05-25T13:52:53.558Z,8.45
2019-05-25T13:55:22.008Z,5.47
2019-05-25T13:57:50.499Z,8.13
2019-05-25T14:00:19.028Z,5.78
2019-05-25T14:02:47.522Z,5.00
2019-05-25T14:05:16.257Z,8.43
2019-05-25T14:07:44.966Z,4.42
2019-05-25T14:10:13.863Z,10.93
2019-05-25T14:12:42.344Z,2.80
2019-05-25T14:15:11.249Z,3.42
2019-05-25T14:17:39.750Z,5.53
2019-05-25T14:20:08.892Z,6.30
2019-05-25T14:22:37.339Z,7.95
2019-05-25T14:25:07.633Z,6.83
2019-05-25T14:27:36.330Z,8.58
2019-05-25T14:30:06.282Z,7.65
2019-05-25T14:32:34.780Z,6.05
2019-05-25T14:35:03.635Z,11.78
2019-05-25T14:37:32.727Z,7.10
2019-05-25T14:40:01.429Z,11.88
2019-05-25T14:42:29.943Z,5.62
2019-05-25T14:44:58.397Z,7.08
2019-05-25T14:47:26.842Z,4.97
2019-05-25T14:49:55.566Z,8.58
2019-05-25T14:52:24.010Z,6.85
2019-05-25T14:54:52.432Z,5.58
2019-05-25T14:57:20.872Z,7.60
2019-05-25T14:59:49.307Z,10.98
2019-05-25T15:02:17.796Z,7.62
2019-05-25T15:04:46.220Z,7.05
2019-05-25T15:07:14.845Z,5.78
2019-05-25T15:09:43.613Z,5.83
2019-05-25T15:12:12.073Z,11.18
2019-05-25T15:14:40.567Z,5.50
2019-05-25T15:17:08.997Z,12.18
2019-05-25T15:19:37.690Z,6.42
2019-05-25T15:22:06.326Z,4.78
2019-05-25T15:24:34.808Z,8.85
2019-05-25T15:27:03.252Z,7.35
2019-05-25T15:29:31.964Z,4.97
2019-05-25T15:32:00.394Z,6.47
2019-05-25T15:34:28.841Z,8.70
2019-05-25T15:36:57.281Z,5.83
2019-05-25T15:39:26.082Z,5.22
2019-05-25T15:41:54.905Z,5.67
2019-05-25T15:44:23.412Z,3.87
2019-05-25T15:46:52.181Z,8.73
2019-05-25T15:49:20.683Z,5.90
2019-05-25T15:51:49.110Z,4.83
2019-05-25T15:54:17.557Z,4.05
2019-05-25T15:56:46.267Z,4.85
2019-05-25T15:59:14.848Z,7.08
2019-05-25T16:01:43.473Z,7.67
2019-05-25T16:04:12.645Z,6.80
2019-05-25T16:06:41.326Z,7.30
2019-05-25T16:09:10.091Z,6.03
2019-05-25T16:11:38.542Z,5.05
2019-05-25T16:14:07.904Z,6.95
2019-05-25T16:16:36.421Z,11.50
2019-05-25T16:19:04.973Z,7.17
2019-05-25T16:21:33.474Z,4.83
2019-05-25T16:24:01.932Z,4.20
2019-05-25T16:26:44.881Z,6.58
2019-05-25T16:29:00.514Z,6.45
2019-05-25T16:31:28.960Z,6.85
2019-05-25T16:33:57.415Z,5.40
2019-05-25T16:36:26.177Z,8.40
2019-05-25T16:38:54.611Z,4.60
2019-05-25T16:41:23.203Z,6.45
2019-05-25T16:43:51.625Z,4.42
2019-05-25T16:46:20.127Z,4.85
2019-05-25T16:48:48.593Z,6.45
2019-05-25T16:51:17.634Z,8.08
2019-05-25T16:53:46.478Z,4.25
2019-05-25T16:56:15.195Z,12.35
2019-05-25T16:58:43.883Z,4.83
2019-05-25T17:01:12.326Z,5.78
2019-05-25T17:03:40.754Z,5.78
2019-05-25T17:06:09.496Z,4.45
2019-05-25T17:08:38.143Z,8.75
2019-05-25T17:11:06.743Z,5.62
2019-05-25T17:13:35.223Z,5.53
2019-05-25T17:16:03.862Z,6.37
2019-05-25T17:18:32.446Z,7.40
2019-05-25T17:21:00.873Z,6.35
2019-05-25T17:23:29.531Z,7.62
2019-05-25T17:25:57.969Z,5.53
2019-05-25T17:28:26.787Z,5.78
2019-05-25T17:30:55.265Z,8.78
2019-05-25T17:33:23.761Z,3.77
2019-05-25T17:35:52.243Z,4.97
2019-05-25T17:38:20.994Z,6.80
2019-05-25T17:40:49.446Z,8.10
2019-05-25T17:43:17.878Z,5.10
2019-05-25T17:45:46.329Z,9.28
2019-05-25T17:48:14.773Z,4.28
2019-05-25T17:50:43.229Z,11.35
2019-05-25T17:53:11.987Z,8.28
2019-05-25T17:55:40.421Z,8.75
2019-05-25T17:58:08.862Z,5.97
2019-05-25T18:00:40.129Z,11.45
2019-05-25T18:03:09.074Z,7.60
2019-05-25T18:05:37.773Z,7.40
2019-05-25T18:08:06.549Z,6.30
2019-05-25T18:10:51.216Z,6.22
2019-05-25T18:13:05.666Z,6.35
2019-05-25T18:15:34.182Z,12.13
2019-05-25T18:18:02.617Z,5.97
2019-05-25T18:20:31.062Z,11.12
2019-05-25T18:22:59.500Z,7.15
2019-05-25T18:25:27.945Z,6.30
2019-05-25T18:27:56.378Z,6.70
2019-05-25T18:30:25.573Z,11.57
2019-05-25T18:32:54.888Z,5.78
2019-05-25T18:35:23.691Z,7.20
2019-05-25T18:37:52.140Z,6.45
2019-05-25T18:40:21.873Z,6.15
2019-05-25T18:42:50.325Z,5.75
2019-05-25T18:45:18.821Z,7.90
2019-05-25T18:47:47.509Z,9.15
2019-05-25T18:50:16.422Z,6.58
2019-05-25T18:52:44.875Z,6.30
2019-05-25T18:55:14.858Z,8.08
2019-05-25T18:57:43.291Z,6.67
2019-05-25T19:00:12.463Z,5.78
2019-05-25T19:02:40.893Z,12.35
2019-05-25T19:05:10.778Z,7.72
2019-05-25T19:07:39.197Z,6.28
2019-05-25T19:10:08.775Z,7.65
2019-05-25T19:12:37.475Z,9.35
2019-05-25T19:15:09.296Z,6.25
2019-05-25T19:17:37.881Z,4.70
2019-05-25T19:20:07.159Z,5.00
2019-05-25T19:22:35.970Z,9.95
2019-05-25T19:25:06.751Z,11.28
2019-05-25T19:27:35.200Z,5.75
2019-05-25T19:30:07.643Z,7.92
2019-05-25T19:32:36.448Z,11.08
2019-05-25T19:35:07.699Z,9.38
2019-05-25T19:37:36.391Z,6.83
2019-05-25T19:40:09.222Z,9.20
2019-05-25T19:42:36.897Z,8.90
2019-05-25T19:45:10.064Z,7.33
2019-05-25T19:47:38.524Z,10.70
2019-05-25T19:50:08.145Z,10.58
2019-05-25T19:52:36.841Z,8.08
2019-05-25T19:55:08.541Z,7.60
2019-05-25T19:57:37.006Z,13.20
2019-05-25T20:00:07.458Z,12.68
2019-05-25T20:02:36.151Z,11.43
2019-05-25T20:05:16.296Z,6.22
2019-05-25T20:10:08.249Z,8.28
2019-05-25T20:12:36.679Z,12.13
2019-05-25T20:15:07.225Z,9.98
2019-05-25T20:17:36.253Z,9.73
2019-05-25T20:20:06.425Z,10.23
2019-05-25T20:22:35.184Z,10.03
2019-05-25T20:25:07.342Z,14.63
2019-05-25T20:27:36.102Z,13.80
2019-05-25T20:30:08.881Z,19.67
2019-05-25T20:32:37.323Z,7.25
2019-05-25T20:35:08.114Z,11.88
2019-05-25T20:37:36.612Z,12.43
2019-05-25T20:40:07.603Z,7.42
2019-05-25T20:42:36.316Z,20.00
2019-05-25T20:45:07.676Z,13.13
2019-05-25T20:47:36.116Z,11.88
2019-05-25T20:50:07.378Z,11.68
2019-05-25T20:52:36.064Z,12.93
2019-05-25T20:55:08.691Z,13.75
2019-05-25T20:57:37.408Z,12.40
2019-05-25T21:00:06.949Z,20.52
2019-05-25T21:02:35.654Z,18.50
2019-05-25T21:05:06.041Z,11.40
2019-05-25T21:07:34.810Z,15.35
2019-05-25T21:10:05.257Z,11.30
2019-05-25T21:12:33.954Z,13.10
2019-05-25T21:15:02.397Z,18.25
2019-05-25T21:17:30.855Z,17.67
2019-05-25T21:19:59.289Z,15.53
2019-05-25T21:22:27.745Z,17.57
2019-05-25T21:24:56.480Z,15.88
2019-05-25T21:27:25.263Z,19.30
2019-05-25T21:29:53.694Z,18.42
2019-05-25T21:32:22.142Z,19.15
2019-05-25T21:34:50.570Z,17.02
2019-05-25T21:37:19.289Z,19.20
2019-05-25T21:39:47.745Z,21.05
2019-05-25T21:42:16.189Z,17.70
2019-05-25T21:44:44.882Z,16.32
2019-05-25T21:47:13.320Z,18.92
2019-05-25T21:49:42.006Z,15.40
2019-05-25T21:52:10.697Z,16.40
2019-05-25T21:54:39.129Z,16.02
2019-05-25T21:57:07.565Z,12.88
2019-05-25T21:59:36.001Z,15.65
2019-05-25T22:02:04.600Z,13.68
2019-05-25T22:04:33.303Z,17.23
2019-05-25T22:07:01.978Z,17.98
2019-05-25T22:09:30.672Z,16.67
2019-05-25T22:11:59.349Z,19.10
2019-05-25T22:14:28.144Z,17.60
2019-05-25T22:16:56.577Z,21.25
2019-05-25T22:19:25.022Z,17.25
2019-05-25T22:21:53.445Z,14.78
2019-05-25T22:24:21.897Z,20.02
2019-05-25T22:26:50.335Z,20.10
2019-05-25T22:29:18.761Z,18.65
2019-05-25T22:31:47.457Z,22.52
2019-05-25T22:34:16.205Z,16.75
2019-05-25T22:36:44.657Z,21.55
2019-05-25T22:39:13.080Z,18.67
2019-05-25T22:41:41.558Z,17.57
2019-05-25T22:44:10.340Z,17.57
2019-05-25T22:46:38.781Z,19.35
2019-05-25T22:49:07.481Z,16.30
2019-05-25T22:51:35.913Z,17.85
2019-05-25T22:54:04.408Z,17.05
2019-05-25T22:56:33.347Z,15.45
2019-05-25T22:59:01.846Z,20.90
2019-05-25T23:01:34.520Z,19.25
2019-05-25T23:04:03.102Z,21.57
2019-05-25T23:06:31.599Z,21.68
2019-05-25T23:09:00.318Z,21.42
2019-05-25T23:11:28.829Z,24.63
2019-05-25T23:13:57.310Z,20.45
2019-05-25T23:16:26.240Z,22.00
2019-05-25T23:18:54.796Z,24.25
2019-05-25T23:21:23.233Z,26.00
2019-05-25T23:23:51.749Z,24.77
2019-05-25T23:26:20.233Z,24.47
2019-05-25T23:28:48.818Z,25.02
2019-05-25T23:31:17.269Z,26.27
2019-05-25T23:33:45.996Z,30.88
2019-05-25T23:36:14.483Z,24.00
2019-05-25T23:38:44.537Z,22.02
2019-05-25T23:41:13.047Z,20.08
2019-05-25T23:43:41.485Z,22.87
2019-05-25T23:46:09.934Z,19.55
2019-05-25T23:48:38.400Z,23.10
2019-05-25T23:51:06.917Z,23.65
2019-05-25T23:53:35.368Z,22.70
2019-05-25T23:56:03.805Z,20.00
2019-05-25T23:58:32.317Z,23.12
